sensor_id;sensor_type;location;lat;lon;timestamp;temperature;humidity
11423;DHT22;5768;51.476;7.210;2023-09-18T00:00:20;21.70;22.00
11423;DHT22;5768;51.476;7.210;2023-09-18T00:05:22;21.70;22.10
11423;DHT22;5768;51.476;7.210;2023-09-18T00:10:26;21.60;22.30
11423;DHT22;5768;51.476;7.210;2023-09-18T00:15:31;21.60;22.30
11423;DHT22;5768;51.476;7.210;2023-09-18T00:20:33;21.50;22.20
11423;DHT22;5768;51.476;7.210;2023-09-18T00:25:36;21.50;22.30
11423;DHT22;5768;51.476;7.210;2023-09-18T00:30:44;21.50;22.10
11423;DHT22;5768;51.476;7.210;2023-09-18T00:35:50;21.50;22.50
11423;DHT22;5768;51.476;7.210;2023-09-18T00:40:53;21.50;22.30
11423;DHT22;5768;51.476;7.210;2023-09-18T00:45:56;21.40;22.20
11423;DHT22;5768;51.476;7.210;2023-09-18T00:50:58;21.40;22.00
11423;DHT22;5768;51.476;7.210;2023-09-18T00:56:03;21.40;21.90
11423;DHT22;5768;51.476;7.210;2023-09-18T01:01:07;21.40;22.00
11423;DHT22;5768;51.476;7.210;2023-09-18T01:06:11;21.40;21.60
11423;DHT22;5768;51.476;7.210;2023-09-18T01:11:22;21.40;21.40
11423;DHT22;5768;51.476;7.210;2023-09-18T01:16:39;21.40;21.30
11423;DHT22;5768;51.476;7.210;2023-09-18T01:21:46;21.40;21.40
11423;DHT22;5768;51.476;7.210;2023-09-18T01:26:49;21.40;21.30
11423;DHT22;5768;51.476;7.210;2023-09-18T01:31:51;21.40;21.30
11423;DHT22;5768;51.476;7.210;2023-09-18T01:36:55;21.40;21.40
11423;DHT22;5768;51.476;7.210;2023-09-18T01:42:01;21.40;21.30
11423;DHT22;5768;51.476;7.210;2023-09-18T01:47:06;21.40;21.30
11423;DHT22;5768;51.476;7.210;2023-09-18T01:52:10;21.30;21.30
11423;DHT22;5768;51.476;7.210;2023-09-18T01:57:13;21.30;21.20
11423;DHT22;5768;51.476;7.210;2023-09-18T02:02:15;21.30;21.20
11423;DHT22;5768;51.476;7.210;2023-09-18T02:07:18;21.30;21.10
11423;DHT22;5768;51.476;7.210;2023-09-18T02:12:21;21.30;20.90
11423;DHT22;5768;51.476;7.210;2023-09-18T02:17:23;21.40;20.80
11423;DHT22;5768;51.476;7.210;2023-09-18T02:22:26;21.40;20.70
11423;DHT22;5768;51.476;7.210;2023-09-18T02:27:29;21.40;20.60
11423;DHT22;5768;51.476;7.210;2023-09-18T02:32:32;21.40;20.30
11423;DHT22;5768;51.476;7.210;2023-09-18T02:37:35;21.40;20.00
11423;DHT22;5768;51.476;7.210;2023-09-18T02:42:38;21.50;19.70
11423;DHT22;5768;51.476;7.210;2023-09-18T02:47:41;21.60;19.30
11423;DHT22;5768;51.476;7.210;2023-09-18T02:52:43;21.70;19.10
11423;DHT22;5768;51.476;7.210;2023-09-18T02:57:46;21.70;18.70
11423;DHT22;5768;51.476;7.210;2023-09-18T03:02:49;21.90;18.50
11423;DHT22;5768;51.476;7.210;2023-09-18T03:07:51;22.00;18.10
11423;DHT22;5768;51.476;7.210;2023-09-18T03:12:54;22.10;17.70
11423;DHT22;5768;51.476;7.210;2023-09-18T03:17:57;22.20;17.40
11423;DHT22;5768;51.476;7.210;2023-09-18T03:23:02;22.30;17.30
11423;DHT22;5768;51.476;7.210;2023-09-18T03:28:06;22.40;17.10
11423;DHT22;5768;51.476;7.210;2023-09-18T03:33:08;22.40;17.00
11423;DHT22;5768;51.476;7.210;2023-09-18T03:38:10;22.50;16.90
11423;DHT22;5768;51.476;7.210;2023-09-18T03:43:16;22.60;16.90
11423;DHT22;5768;51.476;7.210;2023-09-18T03:48:19;22.50;16.80
11423;DHT22;5768;51.476;7.210;2023-09-18T03:53:22;22.60;16.80
11423;DHT22;5768;51.476;7.210;2023-09-18T03:58:25;22.60;16.80
11423;DHT22;5768;51.476;7.210;2023-09-18T04:03:28;22.60;17.00
11423;DHT22;5768;51.476;7.210;2023-09-18T04:08:30;22.60;16.90
11423;DHT22;5768;51.476;7.210;2023-09-18T04:13:33;22.60;16.90
11423;DHT22;5768;51.476;7.210;2023-09-18T04:18:35;22.60;17.00
11423;DHT22;5768;51.476;7.210;2023-09-18T04:23:37;22.60;17.30
11423;DHT22;5768;51.476;7.210;2023-09-18T04:28:41;22.60;17.30
11423;DHT22;5768;51.476;7.210;2023-09-18T04:33:43;22.60;17.30
11423;DHT22;5768;51.476;7.210;2023-09-18T04:38:46;22.50;17.30
11423;DHT22;5768;51.476;7.210;2023-09-18T04:43:50;22.40;17.40
11423;DHT22;5768;51.476;7.210;2023-09-18T04:48:52;22.30;17.70
11423;DHT22;5768;51.476;7.210;2023-09-18T04:53:54;22.20;17.80
11423;DHT22;5768;51.476;7.210;2023-09-18T04:58:58;22.20;17.80
11423;DHT22;5768;51.476;7.210;2023-09-18T05:04:00;22.20;18.00
11423;DHT22;5768;51.476;7.210;2023-09-18T05:09:02;22.10;18.10
11423;DHT22;5768;51.476;7.210;2023-09-18T05:14:08;22.10;18.30
11423;DHT22;5768;51.476;7.210;2023-09-18T05:19:10;21.90;18.60
11423;DHT22;5768;51.476;7.210;2023-09-18T05:24:12;21.90;18.70
11423;DHT22;5768;51.476;7.210;2023-09-18T05:29:16;21.80;18.90
11423;DHT22;5768;51.476;7.210;2023-09-18T05:34:18;21.60;19.10
11423;DHT22;5768;51.476;7.210;2023-09-18T05:39:20;21.50;19.30
11423;DHT22;5768;51.476;7.210;2023-09-18T05:44:24;21.60;19.30
11423;DHT22;5768;51.476;7.210;2023-09-18T05:49:26;21.60;19.40
11423;DHT22;5768;51.476;7.210;2023-09-18T05:54:28;21.70;19.50
11423;DHT22;5768;51.476;7.210;2023-09-18T05:59:31;21.70;19.30
11423;DHT22;5768;51.476;7.210;2023-09-18T06:04:34;21.70;19.10
11423;DHT22;5768;51.476;7.210;2023-09-18T06:09:37;21.60;19.20
11423;DHT22;5768;51.476;7.210;2023-09-18T06:14:41;21.80;18.90
11423;DHT22;5768;51.476;7.210;2023-09-18T06:19:43;21.80;18.90
11423;DHT22;5768;51.476;7.210;2023-09-18T06:24:47;21.80;18.80
11423;DHT22;5768;51.476;7.210;2023-09-18T06:29:50;21.80;19.00
11423;DHT22;5768;51.476;7.210;2023-09-18T06:34:52;21.80;19.00
11423;DHT22;5768;51.476;7.210;2023-09-18T06:39:55;21.90;18.80
11423;DHT22;5768;51.476;7.210;2023-09-18T06:44:59;22.00;18.60
11423;DHT22;5768;51.476;7.210;2023-09-18T06:50:02;22.10;18.50
11423;DHT22;5768;51.476;7.210;2023-09-18T06:55:07;22.10;18.40
11423;DHT22;5768;51.476;7.210;2023-09-18T07:00:12;22.00;18.50
11423;DHT22;5768;51.476;7.210;2023-09-18T07:05:19;22.10;18.50
11423;DHT22;5768;51.476;7.210;2023-09-18T07:10:21;22.10;18.20
11423;DHT22;5768;51.476;7.210;2023-09-18T07:15:24;22.40;18.00
11423;DHT22;5768;51.476;7.210;2023-09-18T07:20:27;22.40;17.80
11423;DHT22;5768;51.476;7.210;2023-09-18T07:25:29;22.50;17.70
11423;DHT22;5768;51.476;7.210;2023-09-18T07:30:33;22.80;17.50
11423;DHT22;5768;51.476;7.210;2023-09-18T07:35:38;23.00;17.10
11423;DHT22;5768;51.476;7.210;2023-09-18T07:40:41;23.00;17.00
11423;DHT22;5768;51.476;7.210;2023-09-18T07:45:44;23.20;17.00
11423;DHT22;5768;51.476;7.210;2023-09-18T07:51:05;23.30;16.80
11423;DHT22;5768;51.476;7.210;2023-09-18T07:56:08;23.30;16.80
11423;DHT22;5768;51.476;7.210;2023-09-18T08:01:14;23.40;16.60
11423;DHT22;5768;51.476;7.210;2023-09-18T08:06:17;23.20;16.60
11423;DHT22;5768;51.476;7.210;2023-09-18T08:11:19;23.10;16.80
11423;DHT22;5768;51.476;7.210;2023-09-18T08:16:23;23.40;16.60
11423;DHT22;5768;51.476;7.210;2023-09-18T08:21:25;23.20;16.40
11423;DHT22;5768;51.476;7.210;2023-09-18T08:26:29;23.00;16.60
11423;DHT22;5768;51.476;7.210;2023-09-18T08:31:36;22.90;16.60
11423;DHT22;5768;51.476;7.210;2023-09-18T08:36:39;23.00;16.50
11423;DHT22;5768;51.476;7.210;2023-09-18T08:41:42;23.10;16.40
11423;DHT22;5768;51.476;7.210;2023-09-18T08:46:47;23.10;16.60
11423;DHT22;5768;51.476;7.210;2023-09-18T08:51:51;23.30;16.20
11423;DHT22;5768;51.476;7.210;2023-09-18T08:56:57;23.20;16.20
11423;DHT22;5768;51.476;7.210;2023-09-18T09:02:01;23.30;15.80
11423;DHT22;5768;51.476;7.210;2023-09-18T09:07:04;23.30;16.00
11423;DHT22;5768;51.476;7.210;2023-09-18T09:12:08;23.30;15.80
11423;DHT22;5768;51.476;7.210;2023-09-18T09:17:18;23.40;15.80
11423;DHT22;5768;51.476;7.210;2023-09-18T09:22:21;23.40;15.70
11423;DHT22;5768;51.476;7.210;2023-09-18T09:27:24;23.70;15.40
11423;DHT22;5768;51.476;7.210;2023-09-18T09:32:32;23.60;15.30
11423;DHT22;5768;51.476;7.210;2023-09-18T09:37:35;23.30;15.50
11423;DHT22;5768;51.476;7.210;2023-09-18T09:42:41;23.30;15.40
11423;DHT22;5768;51.476;7.210;2023-09-18T09:47:46;23.50;15.60
11423;DHT22;5768;51.476;7.210;2023-09-18T09:52:52;23.50;15.20
11423;DHT22;5768;51.476;7.210;2023-09-18T09:57:57;23.70;15.20
11423;DHT22;5768;51.476;7.210;2023-09-18T10:03:04;24.30;15.00
11423;DHT22;5768;51.476;7.210;2023-09-18T10:08:14;24.50;14.90
11423;DHT22;5768;51.476;7.210;2023-09-18T10:13:26;24.70;14.50
11423;DHT22;5768;51.476;7.210;2023-09-18T10:18:44;24.20;14.60
11423;DHT22;5768;51.476;7.210;2023-09-18T10:24:02;24.70;14.50
11423;DHT22;5768;51.476;7.210;2023-09-18T10:29:11;24.40;14.40
11423;DHT22;5768;51.476;7.210;2023-09-18T10:34:17;24.50;14.50
11423;DHT22;5768;51.476;7.210;2023-09-18T10:39:21;23.60;14.50
11423;DHT22;5768;51.476;7.210;2023-09-18T10:44:28;23.80;14.50
11423;DHT22;5768;51.476;7.210;2023-09-18T10:49:34;23.70;14.50
11423;DHT22;5768;51.476;7.210;2023-09-18T10:54:37;23.60;14.50
11423;DHT22;5768;51.476;7.210;2023-09-18T10:59:44;24.20;14.40
11423;DHT22;5768;51.476;7.210;2023-09-18T11:04:48;24.50;14.20
11423;DHT22;5768;51.476;7.210;2023-09-18T11:09:56;24.30;14.30
11423;DHT22;5768;51.476;7.210;2023-09-18T11:14:59;24.30;14.20
11423;DHT22;5768;51.476;7.210;2023-09-18T11:20:08;24.10;14.10
11423;DHT22;5768;51.476;7.210;2023-09-18T11:25:35;24.20;14.00
11423;DHT22;5768;51.476;7.210;2023-09-18T11:30:50;24.50;13.80
11423;DHT22;5768;51.476;7.210;2023-09-18T11:36:06;24.90;13.80
11423;DHT22;5768;51.476;7.210;2023-09-18T11:41:25;25.10;13.60
11423;DHT22;5768;51.476;7.210;2023-09-18T11:46:28;25.80;13.10
11423;DHT22;5768;51.476;7.210;2023-09-18T11:51:33;25.70;13.10
11423;DHT22;5768;51.476;7.210;2023-09-18T11:56:39;26.10;12.90
11423;DHT22;5768;51.476;7.210;2023-09-18T12:01:42;25.50;12.90
11423;DHT22;5768;51.476;7.210;2023-09-18T12:06:51;25.40;13.10
11423;DHT22;5768;51.476;7.210;2023-09-18T12:11:53;25.40;13.20
11423;DHT22;5768;51.476;7.210;2023-09-18T12:16:57;25.40;13.10
11423;DHT22;5768;51.476;7.210;2023-09-18T12:22:02;25.50;13.10
11423;DHT22;5768;51.476;7.210;2023-09-18T12:27:06;25.00;13.00
11423;DHT22;5768;51.476;7.210;2023-09-18T12:32:09;25.20;13.10
11423;DHT22;5768;51.476;7.210;2023-09-18T12:37:15;26.20;12.70
11423;DHT22;5768;51.476;7.210;2023-09-18T12:42:18;26.80;12.60
11423;DHT22;5768;51.476;7.210;2023-09-18T12:47:20;26.80;12.30
11423;DHT22;5768;51.476;7.210;2023-09-18T12:52:24;25.60;12.50
11423;DHT22;5768;51.476;7.210;2023-09-18T12:57:26;25.90;12.70
11423;DHT22;5768;51.476;7.210;2023-09-18T13:02:29;26.00;12.40
11423;DHT22;5768;51.476;7.210;2023-09-18T13:07:43;27.10;12.10
11423;DHT22;5768;51.476;7.210;2023-09-18T13:12:48;27.80;11.50
11423;DHT22;5768;51.476;7.210;2023-09-18T13:17:53;29.10;11.10
11423;DHT22;5768;51.476;7.210;2023-09-18T13:22:59;29.80;10.80
11423;DHT22;5768;51.476;7.210;2023-09-18T13:28:05;29.60;10.80
11423;DHT22;5768;51.476;7.210;2023-09-18T13:33:10;31.10;10.20
11423;DHT22;5768;51.476;7.210;2023-09-18T13:38:15;32.20;9.90
11423;DHT22;5768;51.476;7.210;2023-09-18T13:43:17;30.30;10.20
11423;DHT22;5768;51.476;7.210;2023-09-18T13:48:22;31.80;9.90
11423;DHT22;5768;51.476;7.210;2023-09-18T13:53:25;29.50;10.10
11423;DHT22;5768;51.476;7.210;2023-09-18T13:58:29;29.20;10.10
11423;DHT22;5768;51.476;7.210;2023-09-18T14:03:31;31.10;9.70
11423;DHT22;5768;51.476;7.210;2023-09-18T14:08:34;31.50;9.70
11423;DHT22;5768;51.476;7.210;2023-09-18T14:13:39;29.60;9.70
11423;DHT22;5768;51.476;7.210;2023-09-18T14:18:42;27.50;10.40
11423;DHT22;5768;51.476;7.210;2023-09-18T14:23:45;29.50;9.90
11423;DHT22;5768;51.476;7.210;2023-09-18T14:28:48;32.50;9.50
11423;DHT22;5768;51.476;7.210;2023-09-18T14:33:50;34.70;8.90
11423;DHT22;5768;51.476;7.210;2023-09-18T14:38:54;34.50;8.70
11423;DHT22;5768;51.476;7.210;2023-09-18T14:43:58;32.70;8.90
11423;DHT22;5768;51.476;7.210;2023-09-18T14:49:01;32.70;9.10
11423;DHT22;5768;51.476;7.210;2023-09-18T14:54:05;32.90;8.80
11423;DHT22;5768;51.476;7.210;2023-09-18T14:59:09;34.70;8.50
11423;DHT22;5768;51.476;7.210;2023-09-18T15:04:11;35.20;8.20
11423;DHT22;5768;51.476;7.210;2023-09-18T15:09:14;35.20;8.00
11423;DHT22;5768;51.476;7.210;2023-09-18T15:14:18;34.40;8.10
11423;DHT22;5768;51.476;7.210;2023-09-18T15:19:20;34.90;8.20
11423;DHT22;5768;51.476;7.210;2023-09-18T15:24:24;35.40;7.90
11423;DHT22;5768;51.476;7.210;2023-09-18T15:29:26;35.80;7.80
11423;DHT22;5768;51.476;7.210;2023-09-18T15:34:33;30.80;8.60
11423;DHT22;5768;51.476;7.210;2023-09-18T15:39:36;32.20;8.60
11423;DHT22;5768;51.476;7.210;2023-09-18T15:44:39;32.60;8.50
11423;DHT22;5768;51.476;7.210;2023-09-18T15:49:41;32.20;8.70
11423;DHT22;5768;51.476;7.210;2023-09-18T15:54:45;34.70;8.20
11423;DHT22;5768;51.476;7.210;2023-09-18T15:59:47;36.30;7.90
11423;DHT22;5768;51.476;7.210;2023-09-18T16:04:49;33.30;8.30
11423;DHT22;5768;51.476;7.210;2023-09-18T16:09:55;33.80;8.10
11423;DHT22;5768;51.476;7.210;2023-09-18T16:14:58;33.90;8.10
11423;DHT22;5768;51.476;7.210;2023-09-18T16:20:04;34.90;8.00
11423;DHT22;5768;51.476;7.210;2023-09-18T16:25:09;35.90;7.80
11423;DHT22;5768;51.476;7.210;2023-09-18T16:30:13;36.10;7.80
11423;DHT22;5768;51.476;7.210;2023-09-18T16:35:22;34.40;8.00
11423;DHT22;5768;51.476;7.210;2023-09-18T16:40:26;31.80;8.50
11423;DHT22;5768;51.476;7.210;2023-09-18T16:45:30;29.60;9.10
11423;DHT22;5768;51.476;7.210;2023-09-18T16:50:32;28.80;9.40
11423;DHT22;5768;51.476;7.210;2023-09-18T16:55:36;27.90;9.60
11423;DHT22;5768;51.476;7.210;2023-09-18T17:00:39;27.30;9.80
11423;DHT22;5768;51.476;7.210;2023-09-18T17:05:41;27.00;10.00
11423;DHT22;5768;51.476;7.210;2023-09-18T17:10:45;26.80;10.00
11423;DHT22;5768;51.476;7.210;2023-09-18T17:15:48;26.30;10.20
11423;DHT22;5768;51.476;7.210;2023-09-18T17:20:51;25.80;10.40
11423;DHT22;5768;51.476;7.210;2023-09-18T17:25:55;25.50;10.50
11423;DHT22;5768;51.476;7.210;2023-09-18T17:30:58;25.50;10.60
11423;DHT22;5768;51.476;7.210;2023-09-18T17:36:01;25.10;10.70
11423;DHT22;5768;51.476;7.210;2023-09-18T17:41:05;25.10;10.70
11423;DHT22;5768;51.476;7.210;2023-09-18T17:46:08;25.00;10.80
11423;DHT22;5768;51.476;7.210;2023-09-18T17:51:15;24.80;10.90
11423;DHT22;5768;51.476;7.210;2023-09-18T17:56:20;24.70;10.90
11423;DHT22;5768;51.476;7.210;2023-09-18T18:01:23;24.30;11.10
11423;DHT22;5768;51.476;7.210;2023-09-18T18:06:26;24.20;11.10
11423;DHT22;5768;51.476;7.210;2023-09-18T18:11:31;23.00;11.30
11423;DHT22;5768;51.476;7.210;2023-09-18T18:16:34;22.30;11.50
11423;DHT22;5768;51.476;7.210;2023-09-18T18:21:36;20.90;15.40
11423;DHT22;5768;51.476;7.210;2023-09-18T18:26:40;18.70;99.90
11423;DHT22;5768;51.476;7.210;2023-09-18T18:31:42;17.30;99.90
11423;DHT22;5768;51.476;7.210;2023-09-18T18:36:46;17.20;99.90
11423;DHT22;5768;51.476;7.210;2023-09-18T18:41:50;17.40;99.90
11423;DHT22;5768;51.476;7.210;2023-09-18T18:46:52;17.10;99.90
11423;DHT22;5768;51.476;7.210;2023-09-18T18:51:55;17.10;99.90
11423;DHT22;5768;51.476;7.210;2023-09-18T18:56:59;17.30;99.90
11423;DHT22;5768;51.476;7.210;2023-09-18T19:02:02;17.70;99.90
11423;DHT22;5768;51.476;7.210;2023-09-18T19:07:05;17.50;99.90
11423;DHT22;5768;51.476;7.210;2023-09-18T19:12:09;17.90;99.90
11423;DHT22;5768;51.476;7.210;2023-09-18T19:17:12;17.80;99.90
11423;DHT22;5768;51.476;7.210;2023-09-18T19:22:15;18.10;99.90
11423;DHT22;5768;51.476;7.210;2023-09-18T19:27:20;18.10;99.90
11423;DHT22;5768;51.476;7.210;2023-09-18T19:32:22;18.00;97.20
11423;DHT22;5768;51.476;7.210;2023-09-18T19:37:28;18.00;93.80
11423;DHT22;5768;51.476;7.210;2023-09-18T19:42:31;18.10;95.50
11423;DHT22;5768;51.476;7.210;2023-09-18T19:47:34;18.10;91.80
11423;DHT22;5768;51.476;7.210;2023-09-18T19:52:37;18.00;87.90
11423;DHT22;5768;51.476;7.210;2023-09-18T19:57:41;18.10;87.60
11423;DHT22;5768;51.476;7.210;2023-09-18T20:02:43;18.00;89.30
11423;DHT22;5768;51.476;7.210;2023-09-18T20:07:47;18.00;91.30
11423;DHT22;5768;51.476;7.210;2023-09-18T20:12:51;17.80;89.00
11423;DHT22;5768;51.476;7.210;2023-09-18T20:17:53;17.90;89.40
11423;DHT22;5768;51.476;7.210;2023-09-18T20:22:55;18.10;87.20
11423;DHT22;5768;51.476;7.210;2023-09-18T20:27:59;18.00;89.70
11423;DHT22;5768;51.476;7.210;2023-09-18T20:33:02;18.00;87.30
11423;DHT22;5768;51.476;7.210;2023-09-18T20:38:06;18.10;87.50
11423;DHT22;5768;51.476;7.210;2023-09-18T20:43:10;17.90;89.80
11423;DHT22;5768;51.476;7.210;2023-09-18T20:48:12;17.70;91.10
11423;DHT22;5768;51.476;7.210;2023-09-18T20:53:14;17.80;91.20
11423;DHT22;5768;51.476;7.210;2023-09-18T20:58:19;17.80;88.10
11423;DHT22;5768;51.476;7.210;2023-09-18T21:03:22;17.80;86.90
11423;DHT22;5768;51.476;7.210;2023-09-18T21:08:26;17.80;86.60
11423;DHT22;5768;51.476;7.210;2023-09-18T21:13:32;17.90;85.10
11423;DHT22;5768;51.476;7.210;2023-09-18T21:18:34;17.90;86.20
11423;DHT22;5768;51.476;7.210;2023-09-18T21:23:37;18.00;84.90
11423;DHT22;5768;51.476;7.210;2023-09-18T21:28:41;17.80;85.00
11423;DHT22;5768;51.476;7.210;2023-09-18T21:33:43;17.70;85.20
11423;DHT22;5768;51.476;7.210;2023-09-18T21:38:47;17.70;87.30
11423;DHT22;5768;51.476;7.210;2023-09-18T21:43:51;17.50;88.30
11423;DHT22;5768;51.476;7.210;2023-09-18T21:48:54;17.50;87.60
11423;DHT22;5768;51.476;7.210;2023-09-18T21:53:56;17.60;86.00
11423;DHT22;5768;51.476;7.210;2023-09-18T21:59:00;17.60;87.40
11423;DHT22;5768;51.476;7.210;2023-09-18T22:04:04;17.60;89.90
11423;DHT22;5768;51.476;7.210;2023-09-18T22:09:06;17.50;90.10
11423;DHT22;5768;51.476;7.210;2023-09-18T22:14:10;17.40;91.30
11423;DHT22;5768;51.476;7.210;2023-09-18T22:19:12;17.40;92.30
11423;DHT22;5768;51.476;7.210;2023-09-18T22:24:15;17.30;91.60
11423;DHT22;5768;51.476;7.210;2023-09-18T22:29:19;17.30;89.70
11423;DHT22;5768;51.476;7.210;2023-09-18T22:34:24;17.30;92.20
11423;DHT22;5768;51.476;7.210;2023-09-18T22:56:56;17.20;93.30
11423;DHT22;5768;51.476;7.210;2023-09-18T23:01:59;17.00;93.10
11423;DHT22;5768;51.476;7.210;2023-09-18T23:07:03;16.90;93.30
11423;DHT22;5768;51.476;7.210;2023-09-18T23:12:10;16.90;92.80
11423;DHT22;5768;51.476;7.210;2023-09-18T23:17:12;16.90;92.20
11423;DHT22;5768;51.476;7.210;2023-09-18T23:22:15;16.90;95.70
11423;DHT22;5768;51.476;7.210;2023-09-18T23:27:19;16.90;94.70
11423;DHT22;5768;51.476;7.210;2023-09-18T23:32:22;16.90;94.60
11423;DHT22;5768;51.476;7.210;2023-09-18T23:37:25;16.80;95.40
11423;DHT22;5768;51.476;7.210;2023-09-18T23:42:30;16.60;94.10
11423;DHT22;5768;51.476;7.210;2023-09-18T23:47:34;16.60;93.20
11423;DHT22;5768;51.476;7.210;2023-09-18T23:52:36;16.60;92.90
11423;DHT22;5768;51.476;7.210;2023-09-18T23:57:50;16.50;91.30
